Time;durP1;ratioP1;P1;durP2;ratioP2;P2;SDS_P1;SDS_P2;PMS_P1;PMS_P2;Temp;Humidity;BMP_temperature;BMP_pressure;BME280_temperature;BME280_humidity;BME280_pressure;Samples;Min_cycle;Max_cycle;Signal;HPM_P1;HPM_P2
2022/03/01 00:01:21;;;;;;;23.13;12.20;;;6.70;18.50;;;;;;4941534;29;20631;-79
2022/03/01 00:03:46;;;;;;;29.93;12.83;;;6.60;18.70;;;;;;4942791;29;20204;-79
2022/03/01 00:06:12;;;;;;;26.70;13.33;;;6.70;17.70;;;;;;4953382;29;20683;-80
2022/03/01 00:08:38;;;;;;;27.57;12.00;;;6.40;20.10;;;;;;4938176;29;20188;-81
2022/03/01 00:11:03;;;;;;;27.07;15.73;;;6.30;18.60;;;;;;4890579;29;20455;-81
2022/03/01 00:13:29;;;;;;;30.33;12.57;;;4.60;17.20;;;;;;4856334;28;20184;-80
2022/03/01 00:15:55;;;;;;;27.03;11.43;;;6.30;19.30;;;;;;4939986;28;20187;-80
2022/03/01 00:18:20;;;;;;;28.10;12.53;;;6.30;19.10;;;;;;4940976;29;20660;-80
2022/03/01 00:20:46;;;;;;;27.80;12.27;;;6.40;18.70;;;;;;4941174;29;20586;-80
2022/03/01 00:23:12;;;;;;;27.43;11.87;;;6.50;18.60;;;;;;4939168;29;20586;-80
2022/03/01 00:25:37;;;;;;;34.90;13.00;;;6.80;18.60;;;;;;4939635;29;20886;-81
2022/03/01 00:28:03;;;;;;;27.03;12.80;;;6.70;17.90;;;;;;4940531;29;20192;-80
2022/03/01 00:30:29;;;;;;;29.20;11.97;;;6.80;17.80;;;;;;4940806;29;20187;-80
2022/03/01 00:32:54;;;;;;;30.37;12.60;;;6.80;17.50;;;;;;4941281;29;20458;-80
2022/03/01 00:35:20;;;;;;;26.10;13.00;;;6.70;18.30;;;;;;4941049;29;20248;-80
2022/03/01 00:37:46;;;;;;;28.70;12.60;;;6.70;18.50;;;;;;4940760;29;20219;-82
2022/03/01 00:40:12;;;;;;;30.03;13.40;;;6.30;19.20;;;;;;4940937;29;20192;-81
2022/03/01 00:42:38;;;;;;;28.38;12.15;;;6.40;18.30;;;;;;4939801;29;20669;-80
2022/03/01 00:45:04;;;;;;;29.47;13.63;;;6.40;19.00;;;;;;4938791;29;20195;-80
2022/03/01 00:47:30;;;;;;;29.25;12.32;;;6.20;18.80;;;;;;4938259;29;20239;-80
2022/03/01 00:49:57;;;;;;;25.20;12.00;;;6.30;19.10;;;;;;4938260;29;20188;-79
2022/03/01 00:52:24;;;;;;;28.75;12.05;;;6.40;18.50;;;;;;4939935;29;20724;-80
2022/03/01 00:54:49;;;;;;;35.13;12.10;;;5.70;20.40;;;;;;4939767;29;20184;-80
2022/03/01 00:57:15;;;;;;;28.37;12.50;;;5.40;21.40;;;;;;4939038;29;20203;-80
2022/03/01 00:59:40;;;;;;;26.00;12.10;;;5.70;22.10;;;;;;4939856;29;20199;-80
2022/03/01 01:02:06;;;;;;;21.80;10.63;;;5.50;20.60;;;;;;4939381;29;20263;-80
2022/03/01 01:04:32;;;;;;;31.50;13.23;;;5.60;20.00;;;;;;4939468;29;20192;-80
2022/03/01 01:06:57;;;;;;;28.40;12.27;;;5.30;20.90;;;;;;4938964;29;20225;-80
2022/03/01 01:09:23;;;;;;;32.20;12.60;;;5.30;21.40;;;;;;4939879;29;20184;-80
2022/03/01 01:11:49;;;;;;;31.03;13.23;;;5.20;21.60;;;;;;4939840;29;20215;-80
2022/03/01 01:14:14;;;;;;;31.97;12.17;;;5.40;20.80;;;;;;4938782;29;20187;-80
2022/03/01 01:16:40;;;;;;;31.83;13.03;;;5.60;21.40;;;;;;4939724;29;20195;-80
2022/03/01 01:19:06;;;;;;;25.87;12.93;;;5.50;22.00;;;;;;4941633;29;20295;-80
2022/03/01 01:24:16;;;;;;;26.45;11.93;;;5.00;22.90;;;;;;4959815;28;20167;-80
2022/03/01 01:26:42;;;;;;;27.27;12.93;;;4.80;21.00;;;;;;4958928;28;20212;-79
2022/03/01 01:29:08;;;;;;;27.67;12.67;;;4.40;22.70;;;;;;4943046;28;20192;-80
2022/03/01 01:31:33;;;;;;;27.30;13.23;;;4.30;22.40;;;;;;4940977;29;20609;-80
2022/03/01 01:33:59;;;;;;;27.20;13.87;;;4.50;22.30;;;;;;4936895;29;20267;-80
2022/03/01 01:36:25;;;;;;;24.97;12.17;;;4.90;22.00;;;;;;4953394;29;20608;-80
2022/03/01 01:38:52;;;;;;;28.10;12.35;;;5.10;21.30;;;;;;4938525;29;20188;-80
2022/03/01 01:41:18;;;;;;;25.40;11.90;;;5.30;20.90;;;;;;4938220;29;20207;-80
2022/03/01 01:43:43;;;;;;;30.40;13.50;;;5.20;20.10;;;;;;4937609;29;20672;-80
2022/03/01 01:46:09;;;;;;;36.87;14.10;;;5.00;21.20;;;;;;4938032;29;20459;-80
2022/03/01 01:48:35;;;;;;;31.57;14.80;;;4.90;21.70;;;;;;4938242;29;20183;-80
2022/03/01 01:51:00;;;;;;;28.40;13.10;;;5.20;21.30;;;;;;4938524;29;20191;-80
2022/03/01 01:53:26;;;;;;;27.20;13.53;;;5.10;21.10;;;;;;4939121;29;20617;-80
2022/03/01 01:55:52;;;;;;;26.13;13.40;;;5.20;21.50;;;;;;4938930;29;20194;-80
2022/03/01 01:58:18;;;;;;;30.73;13.27;;;5.30;21.20;;;;;;4953952;29;20187;-80
2022/03/01 02:00:44;;;;;;;31.37;13.53;;;5.30;20.80;;;;;;4938815;29;20188;-80
2022/03/01 02:03:10;;;;;;;28.73;13.40;;;5.20;21.10;;;;;;4940104;29;20274;-80
2022/03/01 02:05:36;;;;;;;30.63;14.03;;;5.20;21.50;;;;;;4939055;29;20278;-80
2022/03/01 02:08:01;;;;;;;35.30;13.43;;;5.60;21.10;;;;;;4939119;29;20416;-80
2022/03/01 02:10:27;;;;;;;32.40;13.47;;;5.70;19.90;;;;;;4939183;29;20419;-80
2022/03/01 02:12:55;;;;;;;26.43;13.43;;;5.80;20.10;;;;;;4938604;29;20967;-80
2022/03/01 02:15:21;;;;;;;29.85;13.63;;;5.80;19.70;;;;;;4940008;29;20416;-79
2022/03/01 02:17:47;;;;;;;36.20;14.87;;;5.40;20.40;;;;;;4939191;29;20236;-80
2022/03/01 02:20:15;;;;;;;26.27;12.80;;;6.10;20.60;;;;;;4939640;29;20732;-79
2022/03/01 02:22:41;;;;;;;31.35;13.63;;;5.70;20.30;;;;;;4938932;29;20479;-79
2022/03/01 02:25:07;;;;;;;28.23;13.30;;;5.60;21.30;;;;;;4939572;29;20180;-80
2022/03/01 02:27:33;;;;;;;32.30;13.45;;;5.30;21.10;;;;;;4939258;29;20204;-79
2022/03/01 02:29:59;;;;;;;27.33;14.13;;;5.60;23.00;;;;;;4939126;29;20176;-80
2022/03/01 02:32:24;;;;;;;29.00;13.73;;;5.30;21.20;;;;;;4939601;29;20438;-80
2022/03/01 02:34:50;;;;;;;32.30;13.47;;;5.60;21.50;;;;;;4955377;29;20215;-80
2022/03/01 02:37:15;;;;;;;29.67;13.63;;;5.00;21.70;;;;;;4940425;29;20195;-80
2022/03/01 02:39:41;;;;;;;23.77;12.90;;;4.70;22.50;;;;;;4940987;29;20191;-80
2022/03/01 02:42:07;;;;;;;26.40;13.83;;;4.50;23.50;;;;;;4941784;29;20718;-78
2022/03/01 02:44:32;;;;;;;28.07;13.60;;;4.50;23.40;;;;;;4940672;29;20683;-80
2022/03/01 02:46:58;;;;;;;29.17;13.77;;;4.50;23.20;;;;;;4933926;29;20212;-80
2022/03/01 02:49:24;;;;;;;34.20;14.27;;;4.40;23.20;;;;;;4919653;29;20183;-81
2022/03/01 02:51:49;;;;;;;27.30;14.13;;;4.10;24.00;;;;;;4935825;29;20254;-80
2022/03/01 02:54:15;;;;;;;31.80;14.67;;;4.30;23.70;;;;;;4936463;29;20238;-79
2022/03/01 02:56:41;;;;;;;27.37;12.93;;;4.50;23.20;;;;;;4937631;29;20324;-80
2022/03/01 02:59:07;;;;;;;31.37;14.17;;;4.30;23.60;;;;;;4933409;29;20199;-80
2022/03/01 03:01:33;;;;;;;29.60;14.38;;;4.50;23.40;;;;;;4919785;29;20545;-80
2022/03/01 03:03:59;;;;;;;29.73;14.90;;;4.50;23.90;;;;;;4918672;29;20200;-80
2022/03/01 03:06:25;;;;;;;32.80;14.27;;;4.70;23.60;;;;;;4938050;29;20204;-80
2022/03/01 03:08:51;;;;;;;36.30;16.33;;;4.70;24.00;;;;;;4937888;29;20451;-80
2022/03/01 03:11:17;;;;;;;27.30;13.60;;;4.60;23.10;;;;;;4922715;29;20292;-80
2022/03/01 03:13:42;;;;;;;32.40;15.27;;;5.00;22.60;;;;;;4927683;29;20212;-79
2022/03/01 03:16:08;;;;;;;29.90;14.83;;;4.40;23.80;;;;;;4933529;29;20184;-79
2022/03/01 03:18:34;;;;;;;34.57;14.70;;;4.30;24.50;;;;;;4940535;29;20172;-79
2022/03/01 03:21:00;;;;;;;48.10;16.57;;;4.20;24.90;;;;;;4932989;29;20172;-79
2022/03/01 03:23:25;;;;;;;35.70;15.77;;;4.60;24.70;;;;;;4938143;28;20651;-79
2022/03/01 03:25:51;;;;;;;39.40;16.30;;;4.40;24.30;;;;;;4939414;29;20186;-79
2022/03/01 03:28:17;;;;;;;35.17;14.83;;;4.30;24.10;;;;;;4938498;29;20187;-79
2022/03/01 03:30:43;;;;;;;34.92;15.75;;;4.40;25.10;;;;;;4937723;29;20173;-79
2022/03/01 03:33:09;;;;;;;33.13;15.90;;;4.40;23.70;;;;;;4924887;29;20609;-79
2022/03/01 03:35:34;;;;;;;29.60;15.03;;;4.50;23.30;;;;;;4921730;29;20184;-80
2022/03/01 03:38:00;;;;;;;30.80;14.97;;;4.40;23.60;;;;;;4941178;29;20253;-80
2022/03/01 03:40:26;;;;;;;34.80;16.47;;;4.20;25.00;;;;;;4940512;29;20198;-80
2022/03/01 03:42:51;;;;;;;39.08;17.13;;;4.30;24.00;;;;;;4940009;29;20203;-80
2022/03/01 03:45:17;;;;;;;36.20;16.17;;;4.40;23.60;;;;;;4939922;29;20188;-80
2022/03/01 03:47:43;;;;;;;34.80;16.80;;;4.20;24.10;;;;;;4941136;29;20234;-80
2022/03/01 03:50:10;;;;;;;34.10;14.67;;;4.20;24.50;;;;;;4941947;29;20203;-80
2022/03/01 03:52:40;;;;;;;35.92;16.70;;;3.90;24.20;;;;;;4936488;29;20203;-80
2022/03/01 03:55:07;;;;;;;35.50;15.50;;;4.00;24.70;;;;;;4941103;29;20239;-80
2022/03/01 03:57:34;;;;;;;36.05;16.35;;;4.20;23.80;;;;;;4940682;29;20187;-80
2022/03/01 04:00:02;;;;;;;33.90;16.65;;;4.10;25.00;;;;;;4941148;29;20646;-80
2022/03/01 04:02:28;;;;;;;35.35;15.95;;;4.20;24.10;;;;;;4940206;29;20200;-80
2022/03/01 04:04:53;;;;;;;35.17;16.00;;;3.90;25.20;;;;;;4941553;29;20215;-80
2022/03/01 04:07:19;;;;;;;38.90;15.60;;;4.00;24.60;;;;;;4939860;29;20204;-80
2022/03/01 04:09:45;;;;;;;32.73;15.73;;;3.90;24.40;;;;;;4940591;29;20543;-80
2022/03/01 04:12:10;;;;;;;38.43;17.03;;;4.50;24.10;;;;;;4941085;29;20192;-80
2022/03/01 04:14:36;;;;;;;31.60;16.47;;;3.90;24.60;;;;;;4939316;29;20192;-80
2022/03/01 04:17:02;;;;;;;38.27;17.27;;;4.10;24.30;;;;;;4938396;29;20187;-80
2022/03/01 04:19:28;;;;;;;33.60;16.30;;;4.30;24.10;;;;;;4952906;29;20191;-79
2022/03/01 04:21:54;;;;;;;35.87;15.30;;;4.30;23.50;;;;;;4937791;29;20299;-80
2022/03/01 04:24:19;;;;;;;41.13;17.27;;;4.30;23.40;;;;;;4936874;29;20184;-79
2022/03/01 04:26:45;;;;;;;39.27;16.57;;;4.40;23.20;;;;;;4937921;29;20204;-79
2022/03/01 04:29:11;;;;;;;37.10;16.20;;;4.20;24.00;;;;;;4939664;29;20235;-81
2022/03/01 04:31:36;;;;;;;35.33;16.37;;;4.40;23.50;;;;;;4939089;29;20266;-80
2022/03/01 04:34:02;;;;;;;41.87;17.23;;;3.90;23.60;;;;;;4940644;29;20180;-80
2022/03/01 04:36:28;;;;;;;35.83;16.00;;;3.90;24.30;;;;;;4923018;29;20220;-80
2022/03/01 04:38:53;;;;;;;35.77;16.00;;;3.70;24.80;;;;;;4921132;29;20181;-80
2022/03/01 04:41:19;;;;;;;35.07;16.83;;;3.70;25.30;;;;;;4935926;29;20215;-80
2022/03/01 04:43:45;;;;;;;42.80;16.43;;;4.20;24.80;;;;;;4938850;29;20191;-80
2022/03/01 04:46:11;;;;;;;34.77;16.27;;;1.50;24.40;;;;;;4934262;29;20247;-80
2022/03/01 04:48:37;;;;;;;32.78;16.10;;;3.90;24.50;;;;;;4940267;29;20420;-80
2022/03/01 04:51:04;;;;;;;41.55;16.85;;;3.70;25.50;;;;;;4940480;29;20616;-80
2022/03/01 04:53:30;;;;;;;44.92;15.70;;;3.90;24.70;;;;;;4940113;29;20172;-80
2022/03/01 04:55:56;;;;;;;35.58;16.42;;;3.80;24.90;;;;;;4938622;29;20180;-80
2022/03/01 04:58:22;;;;;;;36.50;16.17;;;3.60;25.40;;;;;;4925065;29;20180;-80
2022/03/01 05:00:47;;;;;;;39.10;17.13;;;3.40;25.70;;;;;;4921651;29;20173;-80
2022/03/01 05:03:13;;;;;;;34.37;15.93;;;3.70;26.50;;;;;;4939140;29;20236;-80
2022/03/01 05:05:39;;;;;;;44.80;17.90;;;3.50;25.10;;;;;;4940177;29;20499;-80
2022/03/01 05:08:05;;;;;;;44.60;17.57;;;4.30;24.70;;;;;;4927579;29;20668;-80
2022/03/01 05:10:30;;;;;;;49.50;17.40;;;3.70;24.60;;;;;;4938220;29;20644;-80
2022/03/01 05:12:58;;;;;;;41.97;17.30;;;3.40;26.60;;;;;;4939148;29;20243;-80
2022/03/01 05:15:28;;;;;;;36.63;15.98;;;3.40;25.30;;;;;;4939654;29;20184;-80
2022/03/01 05:17:55;;;;;;;37.47;17.30;;;3.80;26.10;;;;;;4939306;29;20182;-80
2022/03/01 05:20:21;;;;;;;46.83;17.08;;;3.20;26.00;;;;;;4922962;28;20672;-80
2022/03/01 05:22:47;;;;;;;42.67;16.90;;;3.40;27.20;;;;;;4932324;29;20211;-80
2022/03/01 05:25:15;;;;;;;40.33;17.80;;;3.10;26.10;;;;;;4939904;29;20216;-80
2022/03/01 05:27:43;;;;;;;37.55;15.40;;;3.20;26.50;;;;;;4939348;29;20212;-80
2022/03/01 05:30:12;;;;;;;41.55;15.93;;;3.40;25.70;;;;;;4938257;29;20188;-80
2022/03/01 05:32:40;;;;;;;34.95;15.80;;;3.20;26.80;;;;;;4938934;29;20623;-80
2022/03/01 05:35:09;;;;;;;42.92;18.50;;;2.90;27.20;;;;;;4939092;29;20173;-80
2022/03/01 05:37:35;;;;;;;42.15;17.98;;;2.80;26.90;;;;;;4938297;29;20191;-80
2022/03/01 05:40:01;;;;;;;47.22;17.52;;;2.60;27.10;;;;;;4936976;29;20239;-80
2022/03/01 05:42:27;;;;;;;48.60;17.00;;;2.70;27.00;;;;;;4937796;29;20199;-80
2022/03/01 05:44:52;;;;;;;42.00;19.03;;;2.80;26.90;;;;;;4938283;29;20176;-80
2022/03/01 05:47:18;;;;;;;42.70;19.50;;;2.70;27.00;;;;;;4938378;29;20215;-80
2022/03/01 05:49:44;;;;;;;40.57;17.43;;;2.50;27.70;;;;;;4938162;29;20172;-80
2022/03/01 05:52:10;;;;;;;39.63;17.77;;;3.20;27.10;;;;;;4922407;29;20448;-80
2022/03/01 05:54:36;;;;;;;35.25;16.52;;;3.00;26.90;;;;;;4937804;29;20207;-80
2022/03/01 05:57:01;;;;;;;43.43;17.83;;;3.10;26.10;;;;;;4937898;29;20211;-80
2022/03/01 05:59:27;;;;;;;36.73;16.30;;;3.20;25.80;;;;;;4937955;29;20207;-80
2022/03/01 06:01:53;;;;;;;38.23;16.70;;;3.00;26.20;;;;;;4928464;29;20220;-80
2022/03/01 06:04:18;;;;;;;56.53;16.80;;;2.90;26.90;;;;;;4919490;29;20220;-80
2022/03/01 06:06:44;;;;;;;51.73;18.67;;;2.60;27.30;;;;;;4919081;29;20209;-80
2022/03/01 06:09:10;;;;;;;35.73;16.77;;;2.20;27.50;;;;;;4921531;29;20193;-80
2022/03/01 06:11:35;;;;;;;75.67;16.90;;;2.20;28.10;;;;;;4934867;29;20363;-80
2022/03/01 06:14:02;;;;;;;44.23;17.50;;;1.80;28.50;;;;;;4937614;29;20211;-80
2022/03/01 06:16:28;;;;;;;43.33;16.75;;;1.70;29.20;;;;;;4937546;29;20294;-79
2022/03/01 06:18:54;;;;;;;50.40;17.63;;;1.30;29.60;;;;;;4939959;29;20207;-79
2022/03/01 06:21:20;;;;;;;47.37;16.87;;;0.80;31.20;;;;;;4940764;29;20604;-79
2022/03/01 06:23:48;;;;;;;37.05;16.27;;;1.10;30.40;;;;;;4924597;29;20563;-80
2022/03/01 06:26:14;;;;;;;55.38;16.20;;;1.30;30.00;;;;;;4921005;29;20205;-80
2022/03/01 06:28:39;;;;;;;43.60;17.93;;;1.20;30.00;;;;;;4938920;29;20234;-80
2022/03/01 06:31:05;;;;;;;34.47;15.80;;;0.80;31.40;;;;;;4937690;29;20463;-81
2022/03/01 06:33:31;;;;;;;38.00;17.90;;;1.20;31.30;;;;;;4935200;29;20180;-80
2022/03/01 06:35:56;;;;;;;40.33;17.37;;;1.50;30.30;;;;;;4919287;29;20260;-81
2022/03/01 06:38:22;;;;;;;42.60;18.43;;;1.70;29.70;;;;;;4926460;29;20652;-81
2022/03/01 06:40:48;;;;;;;40.77;18.80;;;1.90;29.40;;;;;;4937257;29;20187;-80
2022/03/01 06:43:14;;;;;;;40.97;18.20;;;2.10;29.40;;;;;;4938072;29;20196;-80
2022/03/01 06:45:39;;;;;;;51.60;20.10;;;2.30;28.80;;;;;;4938339;29;20640;-80
2022/03/01 06:48:05;;;;;;;48.10;20.37;;;2.10;28.90;;;;;;4941338;29;20479;-80
2022/03/01 06:50:31;;;;;;;49.37;19.50;;;1.60;30.00;;;;;;4941014;29;20654;-81
2022/03/01 06:52:56;;;;;;;40.07;18.50;;;1.80;30.00;;;;;;4940999;29;20204;-80
2022/03/01 06:55:23;;;;;;;45.43;18.17;;;2.00;29.30;;;;;;4939365;29;20246;-81
2022/03/01 06:57:49;;;;;;;68.13;19.17;;;2.20;29.20;;;;;;4941283;29;20186;-80
2022/03/01 07:00:15;;;;;;;46.07;19.67;;;2.30;28.90;;;;;;4940576;29;20192;-80
2022/03/01 07:02:42;;;;;;;47.22;20.67;;;2.30;29.00;;;;;;4940232;29;20271;-80
2022/03/01 07:05:10;;;;;;;42.10;18.83;;;2.40;28.40;;;;;;4939139;29;20184;-80
2022/03/01 07:07:36;;;;;;;42.95;20.05;;;2.50;28.40;;;;;;4940362;29;20211;-80
2022/03/01 07:10:04;;;;;;;71.20;21.60;;;2.40;29.20;;;;;;4939551;29;20172;-80
2022/03/01 07:12:30;;;;;;;52.35;20.90;;;2.30;28.80;;;;;;4939857;29;20204;-80
2022/03/01 07:14:56;;;;;;;49.38;20.00;;;2.40;28.80;;;;;;4940736;29;20191;-80
2022/03/01 07:17:22;;;;;;;86.13;20.70;;;2.50;28.70;;;;;;4939076;29;20672;-81
2022/03/01 07:19:49;;;;;;;46.90;19.73;;;2.70;28.10;;;;;;4938880;29;20183;-79
2022/03/01 07:22:15;;;;;;;48.70;20.40;;;3.20;27.60;;;;;;4954518;29;20231;-79
2022/03/01 07:24:40;;;;;;;54.25;23.17;;;3.30;27.20;;;;;;4940157;29;20188;-80
2022/03/01 07:27:06;;;;;;;52.70;21.33;;;3.40;27.40;;;;;;4938133;29;20216;-80
2022/03/01 07:29:32;;;;;;;62.43;20.53;;;3.50;27.40;;;;;;4940492;29;20183;-80
2022/03/01 07:31:58;;;;;;;52.33;20.83;;;3.70;27.10;;;;;;4940339;29;20234;-79
2022/03/01 07:34:24;;;;;;;50.05;21.50;;;3.80;28.40;;;;;;4940156;29;20176;-79
2022/03/01 07:36:50;;;;;;;55.72;21.08;;;3.70;27.10;;;;;;4939940;29;20191;-80
2022/03/01 07:39:16;;;;;;;47.55;19.55;;;3.80;26.60;;;;;;4938614;29;20689;-79
2022/03/01 07:41:41;;;;;;;56.70;20.23;;;4.00;26.40;;;;;;4939606;29;20216;-80
2022/03/01 07:44:07;;;;;;;48.30;20.13;;;3.70;26.20;;;;;;4940409;29;20195;-80
2022/03/01 07:46:33;;;;;;;57.00;20.10;;;3.70;26.70;;;;;;4938885;28;20215;-80
2022/03/01 07:48:58;;;;;;;46.70;19.37;;;3.80;26.70;;;;;;4939180;29;20184;-80
2022/03/01 07:51:24;;;;;;;73.83;20.90;;;4.20;25.10;;;;;;4939867;29;20300;-80
2022/03/01 07:53:51;;;;;;;41.40;19.37;;;4.30;24.70;;;;;;4940938;29;20202;-80
2022/03/01 07:56:20;;;;;;;40.08;17.95;;;4.70;25.20;;;;;;4939569;29;20274;-80
2022/03/01 07:58:46;;;;;;;52.35;18.67;;;4.80;24.20;;;;;;4936716;29;20394;-80
2022/03/01 08:01:12;;;;;;;42.40;19.67;;;5.10;23.30;;;;;;4926781;29;20191;-80
2022/03/01 08:03:37;;;;;;;49.97;21.20;;;5.10;24.20;;;;;;4935899;29;20449;-80
2022/03/01 08:06:03;;;;;;;56.77;19.83;;;5.40;24.00;;;;;;4922550;29;20173;-79
2022/03/01 08:08:29;;;;;;;44.97;18.50;;;4.80;23.70;;;;;;4925418;29;20637;-79
2022/03/01 08:10:55;;;;;;;61.83;20.07;;;4.70;24.60;;;;;;4959727;28;20191;-79
2022/03/01 08:13:20;;;;;;;39.37;19.50;;;4.40;24.10;;;;;;4959783;28;20171;-80
2022/03/01 08:15:46;;;;;;;51.03;20.00;;;3.60;26.00;;;;;;4958880;28;20192;-80
2022/03/01 08:18:11;;;;;;;46.67;19.77;;;4.10;25.40;;;;;;4948887;29;20192;-80
2022/03/01 08:20:37;;;;;;;39.40;17.83;;;4.60;24.90;;;;;;4956168;28;20224;-80
2022/03/01 08:23:03;;;;;;;44.30;19.03;;;4.90;24.00;;;;;;4940149;29;20277;-80
2022/03/01 08:25:29;;;;;;;36.03;18.00;;;5.30;23.30;;;;;;4939449;29;20199;-80
2022/03/01 08:27:56;;;;;;;50.57;18.80;;;5.60;22.60;;;;;;4938223;29;20216;-80
2022/03/01 08:30:22;;;;;;;40.10;17.58;;;5.90;23.50;;;;;;4940306;29;20781;-80
2022/03/01 08:32:49;;;;;;;41.28;19.10;;;5.90;21.90;;;;;;4938941;29;20584;-80
2022/03/01 08:35:15;;;;;;;39.63;17.48;;;6.00;21.90;;;;;;4938357;29;20172;-77
2022/03/01 08:37:41;;;;;;;46.70;19.48;;;6.00;21.70;;;;;;4935313;29;20661;-84
2022/03/01 08:40:08;;;;;;;39.00;19.02;;;6.00;21.60;;;;;;4937966;29;20683;-81
2022/03/01 08:42:34;;;;;;;37.97;17.42;;;6.00;22.00;;;;;;4936545;29;20555;-81
2022/03/01 08:44:59;;;;;;;35.13;15.80;;;5.60;21.20;;;;;;4937943;29;20227;-81
2022/03/01 08:47:26;;;;;;;45.93;18.53;;;5.00;21.40;;;;;;4934581;29;20234;-81
2022/03/01 08:49:53;;;;;;;49.42;18.23;;;5.10;21.50;;;;;;4935502;29;20184;-80
2022/03/01 08:52:19;;;;;;;39.80;16.38;;;5.00;22.20;;;;;;4934895;29;20200;-76
2022/03/01 08:54:44;;;;;;;35.53;16.38;;;5.30;21.80;;;;;;4934730;29;20193;-76
2022/03/01 08:57:10;;;;;;;31.30;14.90;;;5.40;21.10;;;;;;4933314;29;20184;-77
2022/03/01 08:59:36;;;;;;;37.97;16.50;;;5.80;20.80;;;;;;4934778;29;20400;-77
2022/03/01 09:02:03;;;;;;;36.47;17.83;;;6.40;19.90;;;;;;4934546;29;20447;-76
2022/03/01 09:04:29;;;;;;;34.85;17.90;;;6.40;20.20;;;;;;4933598;29;20212;-75
2022/03/01 09:06:55;;;;;;;46.40;17.03;;;5.70;21.70;;;;;;4923691;29;20212;-76
2022/03/01 09:09:20;;;;;;;42.70;18.00;;;5.60;21.60;;;;;;4931522;29;20644;-77
2022/03/01 09:11:46;;;;;;;36.30;17.33;;;6.20;21.10;;;;;;4932863;29;20220;-76
2022/03/01 09:14:12;;;;;;;35.90;17.30;;;6.30;20.40;;;;;;4929546;29;20401;-76
2022/03/01 09:16:38;;;;;;;33.87;16.73;;;5.80;21.20;;;;;;4934227;29;20230;-76
2022/03/01 09:19:08;;;;;;;39.63;17.95;;;6.20;21.80;;;;;;4931508;29;20934;-76
2022/03/01 09:21:34;;;;;;;36.40;17.75;;;6.50;21.30;;;;;;4932188;29;20259;-76
2022/03/01 09:24:00;;;;;;;36.90;17.03;;;6.70;20.30;;;;;;4934110;29;20647;-76
2022/03/01 09:26:25;;;;;;;42.90;17.23;;;6.60;19.50;;;;;;4932389;29;20986;-75
2022/03/01 09:28:51;;;;;;;40.87;18.00;;;5.80;21.00;;;;;;4934144;29;20176;-76
2022/03/01 09:31:17;;;;;;;37.97;16.93;;;6.50;20.30;;;;;;4933809;29;20299;-77
2022/03/01 09:33:43;;;;;;;33.70;17.60;;;7.00;19.80;;;;;;4934354;29;20182;-76
2022/03/01 09:36:13;;;;;;;40.13;18.80;;;6.70;20.80;;;;;;4932778;29;20235;-76
2022/03/01 09:38:39;;;;;;;34.97;18.15;;;5.60;22.70;;;;;;4934371;29;20420;-76
2022/03/01 09:41:05;;;;;;;37.35;18.13;;;5.90;21.60;;;;;;4934114;29;20751;-75
2022/03/01 09:43:36;;;;;;;35.10;18.00;;;6.50;20.60;;;;;;4934164;29;20259;-76
2022/03/01 09:46:02;;;;;;;37.03;17.45;;;7.00;20.30;;;;;;4933035;29;20231;-76
2022/03/01 09:48:27;;;;;;;37.67;16.63;;;6.50;21.20;;;;;;4933398;29;20663;-77
2022/03/01 09:50:54;;;;;;;35.30;16.80;;;6.90;21.00;;;;;;4933442;29;20443;-77
2022/03/01 09:53:20;;;;;;;35.67;17.08;;;7.00;20.30;;;;;;4934158;29;20640;-76
2022/03/01 09:55:46;;;;;;;38.37;17.60;;;7.40;19.80;;;;;;4933854;29;20192;-77
2022/03/01 09:58:13;;;;;;;24.23;12.03;;;7.50;19.40;;;;;;4921152;29;20181;-80
2022/03/01 10:00:38;;;;;;;25.23;12.43;;;8.00;15.70;;;;;;4929326;29;20216;-75
2022/03/01 10:03:06;;;;;;;17.90;11.50;;;7.60;15.50;;;;;;4914604;29;20222;-76
2022/03/01 10:05:38;;;;;;;25.88;12.00;;;8.00;14.50;;;;;;4917631;29;20184;-76
2022/03/01 10:08:15;;;;;;;21.05;11.45;;;8.30;14.10;;;;;;4923014;29;20209;-76
2022/03/01 10:10:47;;;;;;;22.00;11.23;;;8.70;13.90;;;;;;4933717;29;20189;-76
2022/03/01 10:13:23;;;;;;;20.95;11.50;;;8.50;14.20;;;;;;4933801;29;20199;-76
2022/03/01 10:16:04;;;;;;;17.33;9.65;;;8.00;14.20;;;;;;4931921;29;20176;-76
2022/03/01 10:18:33;;;;;;;19.35;10.80;;;8.00;13.50;;;;;;4933529;29;20168;-75
2022/03/01 10:21:05;;;;;;;25.00;12.30;;;8.80;12.90;;;;;;4937014;29;20386;-77
2022/03/01 10:23:32;;;;;;;21.80;11.05;;;8.80;13.80;;;;;;4936352;29;20575;-77
2022/03/01 10:26:09;;;;;;;22.33;12.05;;;9.10;12.20;;;;;;4936784;29;20175;-77
2022/03/01 10:28:37;;;;;;;20.45;11.45;;;9.00;13.90;;;;;;4930746;29;20220;-77
2022/03/01 10:31:14;;;;;;;20.60;11.63;;;9.40;12.40;;;;;;4936080;29;20189;-77
2022/03/01 10:33:52;;;;;;;21.45;11.65;;;9.70;11.90;;;;;;4937125;29;20175;-76
2022/03/01 10:36:22;;;;;;;24.00;12.10;;;10.00;13.20;;;;;;4936887;29;20172;-77
2022/03/01 10:38:54;;;;;;;20.65;11.60;;;9.60;12.40;;;;;;4923931;29;20529;-76
2022/03/01 10:41:25;;;;;;;27.15;13.10;;;9.70;11.30;;;;;;4917953;29;20201;-76
2022/03/01 10:43:53;;;;;;;29.50;12.30;;;10.30;9.00;;;;;;4918072;29;20208;-77
2022/03/01 10:46:20;;;;;;;24.35;11.10;;;10.10;9.40;;;;;;4917578;29;20200;-78
2022/03/01 10:48:46;;;;;;;19.98;10.57;;;9.80;10.00;;;;;;4919955;29;20271;-76
2022/03/01 10:51:13;;;;;;;27.07;13.17;;;9.10;10.60;;;;;;4929167;29;20625;-77
2022/03/01 10:53:45;;;;;;;20.42;10.52;;;8.50;11.90;;;;;;4936960;29;20171;-76
2022/03/01 10:56:12;;;;;;;28.65;13.90;;;8.50;11.80;;;;;;4936513;29;20648;-76
2022/03/01 10:58:41;;;;;;;25.83;13.60;;;8.70;12.90;;;;;;4936283;29;20198;-76
2022/03/01 11:01:09;;;;;;;28.48;13.70;;;9.30;12.70;;;;;;4936087;29;20555;-78
2022/03/01 11:03:35;;;;;;;26.80;14.10;;;10.10;12.90;;;;;;4935105;29;20195;-76
2022/03/01 11:06:02;;;;;;;26.60;13.60;;;10.40;11.00;;;;;;4936524;29;20422;-76
2022/03/01 11:08:38;;;;;;;24.30;13.80;;;10.70;12.60;;;;;;4936740;29;20671;-76
2022/03/01 11:11:07;;;;;;;23.13;12.97;;;12.60;10.20;;;;;;4934807;29;20435;-78
2022/03/01 11:13:37;;;;;;;26.37;14.77;;;13.20;9.80;;;;;;4936633;29;20856;-76
2022/03/01 11:16:14;;;;;;;24.90;14.83;;;11.20;9.60;;;;;;4936298;29;20768;-76
2022/03/01 11:18:50;;;;;;;27.97;14.60;;;11.90;10.60;;;;;;4936613;29;20401;-77
2022/03/01 11:21:17;;;;;;;30.27;14.33;;;11.90;9.60;;;;;;4934822;29;20824;-76
2022/03/01 11:23:43;;;;;;;26.60;13.57;;;11.00;10.80;;;;;;4951261;28;20426;-76
2022/03/01 11:26:13;;;;;;;24.70;14.03;;;11.00;10.70;;;;;;4934592;29;20476;-76
2022/03/01 11:28:42;;;;;;;24.60;14.17;;;11.70;9.30;;;;;;4951066;28;20480;-77
2022/03/01 11:31:19;;;;;;;23.13;13.80;;;11.90;10.10;;;;;;4935248;29;20427;-77
2022/03/01 11:33:54;;;;;;;29.37;13.73;;;12.50;8.20;;;;;;4936300;29;20410;-77
2022/03/01 11:36:22;;;;;;;22.80;13.40;;;12.80;9.80;;;;;;4934289;29;20437;-75
2022/03/01 11:38:47;;;;;;;24.23;14.30;;;13.50;9.90;;;;;;4936506;29;20809;-77
2022/03/01 11:41:19;;;;;;;27.80;14.70;;;12.30;8.50;;;;;;4935770;29;20478;-78
2022/03/01 11:44:00;;;;;;;23.70;14.30;;;12.00;9.40;;;;;;4936176;29;20212;-77
2022/03/01 11:46:26;;;;;;;28.17;12.87;;;13.30;8.90;;;;;;4935743;29;20504;-77
2022/03/01 11:48:56;;;;;;;25.70;14.00;;;12.30;9.00;;;;;;4920465;29;20433;-77
2022/03/01 11:51:40;;;;;;;28.20;13.93;;;12.50;8.80;;;;;;4917009;29;20195;-77
2022/03/01 11:54:11;;;;;;;26.17;13.77;;;12.30;8.90;;;;;;4916841;29;20473;-76
2022/03/01 11:56:38;;;;;;;22.30;14.00;;;11.90;9.40;;;;;;4915448;29;20765;-76
2022/03/01 11:59:13;;;;;;;22.03;13.20;;;11.40;9.90;;;;;;4928158;29;20520;-77
2022/03/01 12:01:40;;;;;;;21.63;13.87;;;12.00;10.60;;;;;;4935771;29;20435;-77
2022/03/01 12:04:07;;;;;;;29.47;14.93;;;13.40;8.50;;;;;;4935300;29;20512;-77
2022/03/01 12:06:38;;;;;;;22.40;13.80;;;14.50;7.70;;;;;;4935458;29;20518;-77
2022/03/01 12:09:09;;;;;;;22.73;13.87;;;14.90;6.30;;;;;;4929926;29;20429;-76
2022/03/01 12:11:39;;;;;;;23.53;13.73;;;13.90;7.10;;;;;;4916598;29;20429;-77
2022/03/01 12:14:10;;;;;;;24.43;13.57;;;14.20;7.60;;;;;;4916494;29;20414;-77
2022/03/01 12:16:37;;;;;;;23.47;13.50;;;14.40;7.10;;;;;;4916093;29;20413;-78
2022/03/01 12:19:11;;;;;;;22.40;13.50;;;14.70;6.70;;;;;;4917527;29;20424;-77
2022/03/01 12:21:37;;;;;;;24.50;14.40;;;15.30;6.80;;;;;;4916227;29;20461;-77
2022/03/01 12:24:04;;;;;;;22.37;13.10;;;14.20;6.30;;;;;;4916468;29;20482;-77
2022/03/01 12:26:31;;;;;;;21.83;13.20;;;13.00;7.90;;;;;;4914859;29;20460;-77
2022/03/01 12:28:59;;;;;;;19.97;13.00;;;14.10;7.20;;;;;;4916319;29;20424;-78
2022/03/01 12:31:28;;;;;;;26.07;13.20;;;16.00;5.40;;;;;;4929819;29;21365;-78
2022/03/01 12:34:03;;;;;;;25.43;13.83;;;15.00;5.10;;;;;;4935412;29;20412;-75
2022/03/01 12:36:40;;;;;;;19.77;13.17;;;14.10;8.00;;;;;;4934715;29;20428;-75